ADDS METAR Data INFO
IDs: Format: Raw Decoded Include TAF

Data at: 2313 UTC 15 Jul 2018

KSYR 152254Z 34007KT 10SM FEW060 FEW250 29/21 A2994 RMK AO2 SLP132 T02890206 $
KSYR 152154Z 32009KT 10SM FEW060 FEW250 31/21 A2993 RMK AO2 SLP130 T03060206 $
KSYR 152054Z VRB03G15KT 10SM FEW055 SCT250 31/21 A2993 RMK AO2 SLP129 T03060206 58012 $
KSYR 151954Z 29005KT 10SM SCT055 32/19 A2994 RMK AO2 SLP133 T03170189 $
KSYR 151854Z 26005KT 10SM SCT050 32/19 A2996 RMK AO2 SLP137 T03170194 $
KSYR 151754Z 00000KT 10SM SCT050 31/19 A2997 RMK AO2 SLP141 SCT V BKN T03110194 10311 20228 58007 $
KSYR 151654Z VRB04KT 10SM FEW040 SCT250 30/21 A2998 RMK AO2 SLP145 FEW V SCT T03000206 $
KSYR 151554Z 24006KT 10SM FEW032 SCT250 28/22 A2998 RMK AO2 SLP145 SCT V FEW T02830217 $
KSYR 151454Z 28003KT 10SM FEW027 SCT065 SCT250 27/21 A2999 RMK AO2 SLP148 T02720211 55005 $
KSYR 151354Z VRB03KT 10SM FEW020 SCT065 BKN250 26/21 A2998 RMK AO2 SLP146 SCT V BKN T02560211 $
KSYR 151254Z 27003KT 10SM FEW070 SCT140 SCT250 24/21 A3000 RMK AO2 SLP151 T02440211 $
KSYR 151154Z 00000KT 10SM BKN075 OVC110 23/22 A3000 RMK AO2 SLP155 60000 70003 T02280217 10233 20211 53004 $
KSYR 151054Z 00000KT 10SM BKN075 BKN110 OVC200 22/21 A3000 RMK AO2 SLP153 T02170211 $
KSYR 150954Z 00000KT 10SM SCT060 BKN075 BKN110 21/21 A3000 RMK AO2 SLP152 T02110211 $
KSYR 150854Z 10003KT 10SM SCT060 BKN085 OVC120 21/21 A2999 RMK AO2 SLP150 60000 T02110211 56005 $
KSYR 150754Z 00000KT 10SM SCT060 BKN090 OVC130 22/21 A2999 RMK AO2 SLP150 T02170206 $
KSYR 150654Z 30003KT 10SM SCT060 OVC085 22/21 A3000 RMK AO2 RAE15 SLP153 P0000 T02220206 $
KSYR 150554Z 00000KT 10SM -RA SCT035 OVC090 23/20 A3001 RMK AO2 RAB47 SLP155 PCPN VERY LIGHT P0000 60000 T02330200 10244 20228 58002 $
KSYR 150454Z 22003KT 10SM SCT035 BKN100 OVC160 24/20 A3002 RMK AO2 SLP158 T02390200 403110228 $
KSYR 150354Z 22005KT 10SM BKN032 BKN100 OVC160 24/20 A3001 RMK AO2 SLP157 T02390200 $
KSYR 150254Z 23004KT 10SM FEW080 OVC120 24/21 A3001 RMK AO2 SLP157 T02390206 53005 $
KSYR 150154Z 00000KT 10SM OVC120 23/21 A3001 RMK AO2 SLP157 T02330211 $
KSYR 150054Z 23003KT 10SM BKN150 OVC200 24/21 A3000 RMK AO2 SLP151 T02390211 $
KSYR 142354Z 26004KT 10SM SCT120 BKN150 OVC200 24/21 A3000 RMK AO2 SLP152 60003 T02440211 10311 20239 58006 $
KSYR 142254Z 27004KT 10SM FEW060 BKN120 OVC150 25/21 A3000 RMK AO2 RAE33 SLP153 P0003 T02500206 $
KSYR 142154Z 32011KT 10SM -RA FEW035 BKN065 BKN080 OVC140 27/19 A3002 RMK AO2 RAB10 SLP157 P0000 T02670189 $
KSYR 142054Z 33013KT 10SM SCT065 BKN070 OVC140 28/20 A3002 RMK AO2 SLP158 T02830200 56006 $
KSYR 141954Z VRB05KT 10SM FEW065 SCT090 OVC150 30/20 A3002 RMK AO2 SLP158 T03000200 $
KSYR 141854Z 00000KT 10SM SCT080 BKN150 BKN200 30/21 A3002 RMK AO2 SLP158 T03000206 $
KSYR 141754Z 35008KT 10SM BKN090 BKN120 BKN200 29/21 A3004 RMK AO2 SLP164 60000 T02890206 10289 20250 58005 $
KSYR 141654Z 28008KT 10SM BKN070 OVC085 28/19 A3005 RMK AO2 RAB36E46 SLP168 P0000 T02780194 $
KSYR 141554Z 26008KT 10SM BKN080 OVC160 28/19 A3005 RMK AO2 SLP168 T02830189 $
KSYR 141454Z 25011KT 10SM SCT075 BKN180 27/18 A3005 RMK AO2 SLP169 60000 T02720178 $
KSYR 141354Z 26010KT 10SM SCT080 BKN170 BKN220 27/19 A3005 RMK AO2 SLP171 T02720189 $
KSYR 141254Z 22008KT 10SM FEW065 SCT120 BKN160 26/18 A3005 RMK AO2 RAB17E27 SLP169 P0000 T02560183
KSYR 141154Z 22006KT 10SM SCT065 BKN090 BKN150 26/18 A3006 RMK AO2 SLP173 60000 T02560183 10256 20233 53003